• Join FlightAware (Why Join?)
  • Login
  • US Flag 
12:54PM EDT


 

Airport Tracker/Info


-or-


 

Live Flight TrackerFlight Track Log ✈ SWA868 ✈ 29-Apr-2013 ✈ KTPA - KMHT

Flight Track Log - Related Links

Times and Time Zones

All times are in EDT time to prevent confusion due to time zone crossing. See the SWA868 flight status page for this flight to view local times or setup timezone preferences in your user account.

Time Position Orientation Groundspeed Altitude Reporting Facility
EDT Latitude Longitude Course Direction KTS MPH feet Rate Location/Type
09:16PM 27.9667 -82.5500 180° South 159 183 600  Level Tampa TRACON
09:16PM 27.9333 -82.5500 180° South 176 203 1,600 2,520 Climbing Tampa TRACON
09:18PM 27.9661 -82.6742 287° West 196 226 7,200 2,880 Climbing Jacksonville Center
09:19PM 28.0453 -82.6550 12° North 190 219 10,700 2,820 Climbing Jacksonville Center
09:20PM 28.1414 -82.6314 12° North 288 331 12,900 2,640 Climbing Jacksonville Center
09:21PM 28.2456 -82.6097 10° North 323 372 16,000 2,520 Climbing Jacksonville Center
09:22PM 28.3394 -82.5861 12° North 351 404 18,000 2,220 Climbing Jacksonville Center
09:23PM 28.4542 -82.5833 North 390 449 20,500 2,460 Climbing Jacksonville Center
09:24PM 28.5731 -82.5878 358° North 410 472 23,000 2,400 Climbing Jacksonville Center
09:25PM 28.7047 -82.5944 357° North 424 488 25,400 2,100 Climbing Jacksonville Center
09:26PM 28.8278 -82.6106 353° North 436 502 27,300 1,980 Climbing Jacksonville Center
09:27PM 28.9531 -82.6269 353° North 441 507 29,400 1,920 Climbing Jacksonville Center
09:28PM 29.0783 -82.6478 352° North 448 516 31,200 1,740 Climbing Jacksonville Center
09:29PM 29.2058 -82.6617 355° North 448 516 32,900 1,380 Climbing Jacksonville Center
09:30PM 29.3311 -82.6781 353° North 448 516 34,000 540 Climbing Jacksonville Center
09:31PM 29.4564 -82.6922 354° North 448 516 34,000 360 Level Jacksonville Center
09:32PM 29.5858 -82.6967 358° North 448 516 34,800 1,140 Climbing Jacksonville Center
09:33PM 29.7153 -82.6725 North 453 521 36,300 1,080 Climbing Jacksonville Center
09:34PM 29.8403 -82.6219 19° North 463 533 37,000 1,200 Climbing Jacksonville Center
09:35PM 29.9656 -82.5736 18° North 468 539 38,700 960 Climbing Jacksonville Center
09:36PM 30.0844 -82.5325 17° North 468 539 39,000 120 Climbing Jacksonville Center
09:37PM 30.2094 -82.4864 18° North 462 532 39,000  Level Jacksonville Center
09:38PM 30.3325 -82.4400 18° North 462 532 39,000  Level Jacksonville Center
09:39PM 30.4431 -82.3986 18° North 462 532 39,000  Level Jacksonville Center
09:40PM 30.5681 -82.3497 19° North 462 532 39,000  Level Jacksonville Center
09:41PM 30.6911 -82.3031 18° North 462 532 39,000  Level Jacksonville Center
09:42PM 30.8161 -82.2564 18° North 462 532 39,000  Level Jacksonville Center
09:43PM 30.9392 -82.2094 18° North 462 532 39,000  Level Jacksonville Center
09:44PM 31.0578 -82.1625 19° North 457 526 39,000  Level Jacksonville Center
09:45PM 31.1808 -82.1203 16° North 457 526 39,000  Level Jacksonville Center
09:46PM 31.3036 -82.0708 19° North 462 532 39,000  Level Jacksonville Center
09:47PM 31.4267 -82.0258 17° North 462 532 39,000  Level Jacksonville Center
09:48PM 31.5472 -81.9758 19° North 457 526 39,000  Level Jacksonville Center
09:49PM 31.6825 -81.9208 19° North 463 533 39,000  Level Jacksonville Center
09:50PM 31.8033 -81.8756 18° North 463 533 39,000  Level Jacksonville Center
09:51PM 31.9158 -81.8328 18° North 463 533 39,000  Level Jacksonville Center
09:52PM 32.0531 -81.7772 19° North 463 533 39,000  Level Jacksonville Center
09:53PM 32.1589 -81.7122 27° Northeast 468 539 39,000  Level Jacksonville Center
09:54PM 32.2833 -81.6197 32° Northeast 474 545 39,000  Level Jacksonville Center
09:55PM 32.3972 -81.5319 33° Northeast 482 555 39,000  Level Jacksonville Center
09:56PM 32.4986 -81.4567 32° Northeast 482 555 39,000  Level Jacksonville Center
09:58PM 32.7386 -81.2725 33° Northeast 478 550 39,000  Level Jacksonville Center
09:59PM 32.8522 -81.1864 32° Northeast 478 550 39,000  Level Jacksonville Center
10:00PM 32.9681 -81.1000 32° Northeast 478 550 39,000  Level Jacksonville Center
10:01PM 33.0817 -81.0133 33° Northeast 478 550 39,000  Level Jacksonville Center
10:02PM 33.1950 -80.9292 32° Northeast 478 550 39,000  Level Jacksonville Center
10:03PM 33.3064 -80.8422 33° Northeast 478 550 39,000  Level Jacksonville Center
10:04PM 33.4175 -80.7550 33° Northeast 478 550 39,000  Level Jacksonville Center
10:05PM 33.5308 -80.6650 33° Northeast 478 550 39,000  Level Jacksonville Center
10:06PM 33.6442 -80.5775 33° Northeast 478 550 39,000  Level Jacksonville Center
10:07PM 33.7572 -80.4919 32° Northeast 478 550 39,000  Level Jacksonville Center
10:08PM 33.8725 -80.4039 32° Northeast 478 550 39,000  Level Jacksonville Center
10:09PM 33.9833 -80.3131 34° Northeast 478 550 39,000  Level Jacksonville Center
10:10PM 34.0961 -80.2244 33° Northeast 478 550 39,000  Level Jacksonville Center
10:12PM 34.2794 -80.0806 33° Northeast 467 537 39,000  Level Washington Center
10:13PM 34.3978 -79.9839 34° Northeast 482 555 39,000  Level Washington Center
10:14PM 34.5097 -79.8942 33° Northeast 487 560 39,000  Level Washington Center
10:15PM 34.6233 -79.8042 33° Northeast 487 560 39,000  Level Washington Center
10:16PM 34.7392 -79.7142 33° Northeast 492 566 39,000  Level Washington Center
10:17PM 34.8508 -79.6236 34° Northeast 492 566 39,000  Level Washington Center
10:18PM 34.9603 -79.5328 34° Northeast 492 566 39,000  Level Washington Center
10:19PM 35.0736 -79.4444 33° Northeast 487 560 39,000  Level Washington Center
10:20PM 35.1911 -79.3661 29° Northeast 480 552 39,000  Level Washington Center
10:21PM 35.3081 -79.2903 28° Northeast 480 552 39,000  Level Washington Center
10:22PM 35.4294 -79.2117 28° Northeast 480 552 39,000  Level Washington Center
10:23PM 35.5572 -79.1281 28° Northeast 475 547 39,000  Level Washington Center
10:24PM 35.6614 -79.0611 28° Northeast 469 540 39,000  Level Washington Center
10:25PM 35.7889 -78.9772 28° Northeast 469 540 39,000  Level Washington Center
10:26PM 35.9058 -78.8975 29° Northeast 469 540 39,000  Level Washington Center
10:27PM 36.0206 -78.8228 28° Northeast 464 534 39,000  Level Washington Center
10:28PM 36.1375 -78.7425 29° Northeast 464 534 39,000  Level Washington Center
10:29PM 36.2522 -78.6647 29° Northeast 464 534 39,000  Level Washington Center
10:30PM 36.3669 -78.5894 28° Northeast 464 534 39,000  Level Washington Center
10:31PM 36.4814 -78.5111 29° Northeast 469 540 39,000  Level Washington Center
10:32PM 36.5958 -78.4350 28° Northeast 469 540 39,000  Level Washington Center
10:33PM 36.6978 -78.3611 30° Northeast 463 533 39,000  Level Washington Center
10:34PM 36.8122 -78.2822 29° Northeast 463 533 39,000  Level Washington Center
10:35PM 36.9289 -78.2031 28° Northeast 463 533 39,000  Level Washington Center
10:36PM 37.0453 -78.1239 28° Northeast 471 542 39,000  Level Washington Center
10:37PM 37.1594 -78.0442 29° Northeast 466 536 39,000  Level Washington Center
10:38PM 37.2781 -77.9617 29° Northeast 466 536 39,000  Level Washington Center
10:39PM 37.3922 -77.8844 28° Northeast 466 536 39,000  Level Washington Center
10:40PM 37.5083 -77.8014 30° Northeast 466 536 39,000  Level Washington Center
10:41PM 37.6225 -77.7233 28° Northeast 466 536 39,000  Level Washington Center
10:42PM 37.7344 -77.6425 30° Northeast 466 536 39,000  Level Washington Center
10:43PM 37.8483 -77.5614 29° Northeast 466 536 39,000  Level Washington Center
10:44PM 37.9622 -77.4803 29° Northeast 466 536 39,000  Level Washington Center
10:45PM 38.0867 -77.3936 29° Northeast 466 536 39,000  Level Washington Center
10:46PM 38.2025 -77.3144 28° Northeast 466 536 39,000  Level Washington Center
10:47PM 38.3164 -77.2297 30° Northeast 466 536 39,000  Level Washington Center
10:48PM 38.4300 -77.1447 30° Northeast 466 536 39,000  Level Washington Center
10:49PM 38.5436 -77.0650 29° Northeast 466 536 39,000  Level Washington Center
10:50PM 38.6572 -76.9819 30° Northeast 466 536 39,000  Level Washington Center
10:51PM 38.7708 -76.8989 30° Northeast 466 536 39,000  Level Washington Center
10:53PM 39.0189 -76.7200 29° Northeast 483 556 39,000  Level New York Center
10:54PM 39.1292 -76.6381 30° Northeast 469 540 39,000  Level New York Center
10:55PM 39.2417 -76.5561 29° Northeast 462 532 39,000  Level New York Center
10:56PM 39.3483 -76.4656 33° Northeast 462 532 39,000  Level New York Center
10:57PM 39.4497 -76.3500 41° Northeast 462 532 39,000  Level New York Center
10:58PM 39.5469 -76.2364 42° Northeast 462 532 39,000  Level New York Center
10:59PM 39.6411 -76.1358 39° Northeast 477 549 39,000  Level New York Center
11:00PM 39.7469 -76.0117 42° Northeast 472 543 39,000  Level New York Center
11:01PM 39.8500 -75.8978 40° Northeast 472 543 39,000  Level New York Center
11:02PM 39.9486 -75.7858 41° Northeast 472 543 39,000  Level New York Center
11:03PM 40.0472 -75.6708 42° Northeast 472 543 39,000  Level New York Center
11:04PM 40.1458 -75.5556 42° Northeast 472 543 39,000  Level New York Center
11:05PM 40.2442 -75.4400 42° Northeast 472 543 39,000  Level New York Center
11:06PM 40.3403 -75.3267 42° Northeast 467 537 39,000  Level New York Center
11:07PM 40.4364 -75.2131 42° Northeast 460 529 39,000  Level New York Center
11:08PM 40.5322 -75.1017 41° Northeast 460 529 39,000  Level New York Center
11:11PM 40.7386 -74.8561 42° Northeast 475 547 39,000  Level Boston Center
11:12PM 40.8325 -74.7444 42° Northeast 470 541 39,000  Level Boston Center
11:13PM 40.9286 -74.6297 42° Northeast 465 535 39,000  Level Boston Center
11:14PM 41.0078 -74.5278 44° Northeast 455 524 39,000  Level Boston Center
11:15PM 41.1056 -74.4153 41° Northeast 450 518 39,000  Level Boston Center
11:16PM 41.1992 -74.3050 42° Northeast 450 518 39,000  Level Boston Center
11:17PM 41.2886 -74.1889 44° Northeast 450 518 39,000 -120 Level Boston Center
11:18PM 41.3819 -74.0753 42° Northeast 450 518 38,800 -1,200 Descending Boston Center
11:19PM 41.4814 -73.9614 41° Northeast 450 518 36,700 -6,900 Descending Boston Center
11:20PM 41.5811 -73.8306 44° Northeast 450 518 25,000 -1,920 Descending Boston Center
11:21PM 41.6636 -73.7294 42° Northeast 443 510 32,900 2,940 Climbing Boston Center
11:22PM 41.7544 -73.6200 42° Northeast 438 504 30,900 -1,980 Descending Boston Center
11:23PM 41.8472 -73.5047 43° Northeast 444 511 29,000 -1,980 Descending Boston Center
11:24PM 41.9422 -73.3833 44° Northeast 455 524 27,000 -1,800 Descending Boston Center
11:25PM 42.0389 -73.2647 42° Northeast 455 524 25,400 -1,020 Descending Boston Center
11:26PM 42.1356 -73.1400 44° Northeast 468 539 25,000 -240 Descending Boston Center
11:27PM 42.2281 -73.0261 42° Northeast 463 533 25,000  Level Boston Center
11:28PM 42.3161 -72.9089 45° Northeast 452 520 25,000 -660 Level Boston Center
11:29PM 42.4061 -72.7775 47° Northeast 458 527 23,700 -2,040 Descending Boston Center
11:30PM 42.4711 -72.6428 57° Northeast 448 516 21,000 -2,580 Descending Boston Center
11:31PM 42.5358 -72.5189 55° Northeast 433 498 18,600 -2,400 Descending Boston Center
11:32PM 42.5964 -72.3950 56° Northeast 410 472 16,200 -2,460 Descending Boston Center
11:33PM 42.6586 -72.2594 58° Northeast 385 443 13,700 -2,400 Descending Boston Center
11:34PM 42.7106 -72.1547 56° Northeast 373 429 11,500 -1,740 Descending Boston Center
11:35PM 42.7686 -72.0328 57° Northeast 355 409 10,300 -1,080 Descending Boston Center
11:36PM 42.8100 -71.9506 56° Northeast 322 371 9,400 -1,320 Descending Boston Center
11:37PM 42.8617 -71.8539 54° Northeast 288 331 7,700 -1,680 Descending Boston Center
11:38PM 42.9008 -71.7742 56° Northeast 280 322 6,100 -1,800 Descending Boston Center
11:39PM 42.9481 -71.6828 55° Northeast 274 315 4,200 -1,620 Descending Boston Center
11:40PM 42.9831 -71.6028 59° Northeast 274 315 2,900 -1,080 Descending Boston Center
11:41PM 43.0072 -71.5172 69° East 238 274 2,100 -720 Descending Boston Center
11:42PM 42.9986 -71.4719 105° East 149 171 1,500 -720 Descending Boston Center
11:43PM 42.9589 -71.4500 158° South 125 144 700 -600 Descending Boston Center
11:44PM 42.9317 -71.4306 152° Southeast 132 152 300 4,140 Descending Boston Center
11:45PM 42.9000 -71.4083 153° Southeast 132 152 9,000 4,320 Climbing Boston Center
11:46PM 42.8686 -71.3892 156° South 132 152 9,000  Level Boston Center
11:48PM 42.9167 -71.4333 316° Northwest  Level FlightAware Approximate
11:55PM 42.9328 -71.4358 316° Northwest  Level Estimated
11:56PM 42.9328 -71.4358 316° Northwest  Level Estimated
11:57PM 42.9328 -71.4358 316° Northwest  Level Estimated
11:58PM 42.9328 -71.4358 316° Northwest  Level Estimated
11:59PM 42.9328 -71.4358 316° Northwest  Level Estimated
12:00AM 42.9328 -71.4358 316° Northwest  Level Estimated
12:01AM 42.9328 -71.4358 316° Northwest  Level Estimated